createdAt,value
2024-01-28T00:02:26.751Z,380.38
2024-01-28T00:04:54.110Z,415.33
2024-01-28T00:07:21.025Z,329.58
2024-01-28T00:09:48.636Z,349.88
2024-01-28T00:12:15.624Z,402.05
2024-01-28T00:14:42.871Z,379.50
2024-01-28T00:17:12.064Z,360.58
2024-01-28T00:19:39.891Z,324.25
2024-01-28T00:22:07.369Z,316.67
2024-01-28T00:24:34.408Z,341.63
2024-01-28T00:27:01.625Z,356.92
2024-01-28T00:29:31.525Z,317.35
2024-01-28T00:32:00.332Z,402.88
2024-01-28T00:34:27.460Z,376.45
2024-01-28T00:36:55.081Z,413.83
2024-01-28T00:39:23.185Z,409.63
2024-01-28T00:41:50.300Z,339.75
2024-01-28T00:44:17.241Z,337.83
2024-01-28T00:46:44.259Z,391.10
2024-01-28T00:49:12.814Z,428.70
2024-01-28T00:51:40.152Z,421.10
2024-01-28T00:54:08.686Z,390.23
2024-01-28T00:56:35.552Z,325.50
2024-01-28T00:59:02.566Z,372.63
2024-01-28T01:01:29.640Z,330.25
2024-01-28T01:03:57.001Z,329.20
2024-01-28T01:06:25.448Z,397.88
2024-01-28T01:08:52.405Z,356.33
2024-01-28T01:11:19.787Z,344.52
2024-01-28T01:13:46.805Z,285.63
2024-01-28T01:16:14.031Z,318.08
2024-01-28T01:18:41.135Z,300.67
2024-01-28T01:21:08.110Z,305.90
2024-01-28T01:23:35.093Z,292.48
2024-01-28T01:26:02.107Z,242.95
2024-01-28T01:28:33.386Z,326.40
2024-01-28T01:31:01.380Z,291.95
2024-01-28T01:33:28.495Z,321.98
2024-01-28T01:35:55.634Z,297.58
2024-01-28T01:38:23.385Z,351.92
2024-01-28T01:40:50.663Z,335.65
2024-01-28T01:43:18.501Z,290.27
2024-01-28T01:45:45.776Z,321.92
2024-01-28T01:48:14.230Z,306.00
2024-01-28T01:50:42.291Z,312.67
2024-01-28T01:53:11.318Z,341.98
2024-01-28T01:55:41.702Z,297.40
2024-01-28T01:58:09.590Z,295.05
2024-01-28T02:00:37.813Z,263.63
2024-01-28T02:03:05.311Z,281.25
2024-01-28T02:05:32.754Z,304.15
2024-01-28T02:08:00.616Z,316.38
2024-01-28T02:10:27.698Z,278.48
2024-01-28T02:12:54.706Z,314.85
2024-01-28T02:15:21.933Z,270.88
2024-01-28T02:17:49.569Z,297.48
2024-01-28T02:20:17.075Z,293.23
2024-01-28T02:22:43.973Z,278.33
2024-01-28T02:25:10.985Z,263.77
2024-01-28T02:27:40.718Z,258.70
2024-01-28T02:30:08.272Z,246.38
2024-01-28T02:32:35.287Z,259.40
2024-01-28T02:35:02.991Z,246.18
2024-01-28T02:37:30.041Z,239.93
2024-01-28T02:39:56.967Z,259.65
2024-01-28T02:42:24.347Z,239.30
2024-01-28T02:44:51.439Z,247.52
2024-01-28T02:47:18.318Z,206.32
2024-01-28T02:49:45.406Z,192.88
2024-01-28T02:52:12.305Z,181.40
2024-01-28T02:54:39.475Z,194.27
2024-01-28T02:57:06.526Z,178.13
2024-01-28T02:59:33.470Z,164.65
2024-01-28T03:02:00.425Z,164.00
2024-01-28T03:04:27.496Z,186.35
2024-01-28T03:06:55.635Z,161.98
2024-01-28T03:09:22.706Z,162.77
2024-01-28T03:11:49.579Z,176.13
2024-01-28T03:14:16.522Z,195.93
2024-01-28T03:16:43.337Z,182.52
2024-01-28T03:19:10.884Z,163.45
2024-01-28T03:21:38.033Z,157.35
2024-01-28T03:24:05.213Z,156.75
2024-01-28T03:26:35.396Z,166.35
2024-01-28T03:29:08.672Z,164.25
2024-01-28T03:31:35.803Z,167.37
2024-01-28T03:34:03.023Z,178.10
2024-01-28T03:36:30.121Z,162.90
2024-01-28T03:38:57.066Z,182.13
2024-01-28T03:41:24.168Z,148.60
2024-01-28T03:43:52.222Z,141.38
2024-01-28T03:46:19.164Z,148.90
2024-01-28T03:48:46.178Z,154.05
2024-01-28T03:51:13.862Z,144.45
2024-01-28T03:53:40.935Z,138.15
2024-01-28T03:56:08.053Z,158.52
2024-01-28T03:58:35.042Z,159.07
2024-01-28T04:01:02.148Z,154.73
2024-01-28T04:03:29.242Z,149.80
2024-01-28T04:05:56.164Z,148.18
2024-01-28T04:08:23.202Z,204.32
2024-01-28T04:10:50.248Z,157.43
2024-01-28T04:13:17.388Z,153.93
2024-01-28T04:15:44.313Z,162.85
2024-01-28T04:18:11.402Z,146.88
2024-01-28T04:20:39.669Z,141.35
2024-01-28T04:23:06.680Z,153.45
2024-01-28T04:25:33.598Z,160.77
2024-01-28T04:28:00.435Z,170.85
2024-01-28T04:30:27.919Z,154.32
2024-01-28T04:32:55.037Z,145.65
2024-01-28T04:35:22.176Z,136.85
2024-01-28T04:37:49.020Z,139.27
2024-01-28T04:40:16.075Z,137.32
2024-01-28T04:42:43.111Z,149.52
2024-01-28T04:45:11.884Z,130.65
2024-01-28T04:47:40.042Z,156.50
2024-01-28T04:50:08.297Z,128.57
2024-01-28T04:52:35.328Z,142.52
2024-01-28T04:55:02.394Z,155.38
2024-01-28T04:57:29.609Z,143.10
2024-01-28T04:59:56.908Z,153.30
2024-01-28T05:02:23.770Z,149.82
2024-01-28T05:04:50.837Z,151.20
2024-01-28T05:07:18.993Z,145.32
2024-01-28T05:09:46.952Z,177.82
2024-01-28T05:12:15.123Z,151.43
2024-01-28T05:14:42.659Z,187.23
2024-01-28T05:17:09.585Z,142.48
2024-01-28T05:19:37.258Z,155.13
2024-01-28T05:22:05.370Z,150.95
2024-01-28T05:24:32.660Z,153.20
2024-01-28T05:27:00.239Z,148.18
2024-01-28T05:29:27.241Z,163.50
2024-01-28T05:31:54.195Z,152.88
2024-01-28T05:34:21.377Z,161.10
2024-01-28T05:36:52.060Z,166.27
2024-01-28T05:39:19.157Z,159.40
2024-01-28T05:41:48.255Z,145.73
2024-01-28T05:44:16.609Z,155.00
2024-01-28T05:46:43.553Z,151.18
2024-01-28T05:49:12.791Z,136.57
2024-01-28T05:51:42.700Z,140.73
2024-01-28T05:54:10.239Z,139.10
2024-01-28T05:56:37.194Z,141.35
2024-01-28T05:59:04.435Z,135.85
2024-01-28T06:01:32.189Z,140.63
2024-01-28T06:03:59.328Z,139.02
2024-01-28T06:06:26.484Z,132.75
2024-01-28T06:08:56.148Z,138.25
2024-01-28T06:11:23.944Z,138.88
2024-01-28T06:13:50.953Z,133.25
2024-01-28T06:16:18.909Z,141.85
2024-01-28T06:18:46.120Z,151.95
2024-01-28T06:21:13.449Z,135.93
2024-01-28T06:23:42.339Z,147.02
2024-01-28T06:26:11.880Z,136.88
2024-01-28T06:28:39.328Z,134.43
2024-01-28T06:31:06.226Z,142.00
2024-01-28T06:33:33.246Z,140.88
2024-01-28T06:36:01.407Z,134.77
2024-01-28T06:38:28.808Z,139.20
2024-01-28T06:40:56.804Z,119.70
2024-01-28T06:43:26.678Z,119.10
2024-01-28T06:45:54.325Z,137.55
2024-01-28T06:48:22.637Z,132.60
2024-01-28T06:50:50.733Z,130.30
2024-01-28T06:53:17.740Z,126.05
2024-01-28T06:55:44.728Z,128.50
2024-01-28T06:58:11.680Z,131.73
2024-01-28T07:00:38.845Z,138.98
2024-01-28T07:03:06.264Z,125.28
2024-01-28T07:05:34.074Z,127.55
2024-01-28T07:08:01.078Z,123.07
2024-01-28T07:10:29.356Z,132.95
2024-01-28T07:12:56.477Z,129.43
2024-01-28T07:15:23.428Z,132.32
2024-01-28T07:17:53.022Z,129.07
2024-01-28T07:20:20.436Z,118.05
2024-01-28T07:22:47.425Z,133.43
2024-01-28T07:25:15.277Z,118.07
2024-01-28T07:27:42.671Z,134.25
2024-01-28T07:30:09.899Z,131.00
2024-01-28T07:32:39.342Z,124.60
2024-01-28T07:35:06.850Z,133.95
2024-01-28T07:37:34.470Z,139.60
2024-01-28T07:40:01.385Z,134.95
2024-01-28T07:42:28.447Z,134.60
2024-01-28T07:44:55.386Z,138.48
2024-01-28T07:47:22.315Z,137.98
2024-01-28T07:49:49.495Z,119.60
2024-01-28T07:52:16.508Z,128.82
2024-01-28T07:54:43.459Z,134.23
2024-01-28T07:57:10.627Z,131.27
2024-01-28T07:59:37.612Z,139.73
2024-01-28T08:02:06.092Z,131.15
2024-01-28T08:04:33.262Z,140.38
2024-01-28T08:07:00.336Z,126.63
2024-01-28T08:09:29.378Z,136.77
2024-01-28T08:11:56.485Z,130.93
2024-01-28T08:14:28.596Z,136.15
2024-01-28T08:16:56.515Z,147.23
2024-01-28T08:19:23.630Z,136.32
2024-01-28T08:21:50.705Z,129.57
2024-01-28T08:24:17.668Z,132.27
2024-01-28T08:26:45.865Z,156.35
2024-01-28T08:29:12.782Z,187.40
2024-01-28T08:31:39.811Z,189.40
2024-01-28T08:34:07.625Z,159.18
2024-01-28T08:36:36.201Z,152.63
2024-01-28T08:39:05.528Z,155.80
2024-01-28T08:41:36.095Z,156.90
2024-01-28T08:44:06.313Z,139.32
2024-01-28T08:46:33.369Z,155.02
2024-01-28T08:49:00.367Z,145.57
2024-01-28T08:51:27.541Z,136.68
2024-01-28T08:53:54.541Z,153.70
2024-01-28T08:56:22.228Z,145.45
2024-01-28T08:58:49.178Z,143.50
2024-01-28T09:01:17.235Z,134.73
2024-01-28T09:03:44.604Z,149.10
2024-01-28T09:06:11.627Z,150.80
2024-01-28T09:08:38.719Z,159.20
2024-01-28T09:11:05.771Z,155.38
2024-01-28T09:13:32.796Z,148.35
2024-01-28T09:16:00.765Z,154.63
2024-01-28T09:18:27.865Z,174.25
2024-01-28T09:20:55.425Z,162.32
2024-01-28T09:23:24.841Z,165.80
2024-01-28T09:25:51.773Z,159.40
2024-01-28T09:28:19.161Z,170.43
2024-01-28T09:30:47.666Z,168.15
2024-01-28T09:33:15.333Z,158.88
2024-01-28T09:35:44.729Z,152.65
2024-01-28T09:38:11.646Z,197.85
2024-01-28T09:40:39.645Z,283.60
2024-01-28T09:43:30.428Z,158.02
2024-01-28T09:45:58.511Z,153.82
2024-01-28T09:48:25.967Z,150.95
2024-01-28T09:50:54.235Z,146.52
2024-01-28T09:53:21.258Z,148.15
2024-01-28T09:55:49.362Z,140.13
2024-01-28T09:58:16.489Z,132.80
2024-01-28T10:00:44.254Z,130.18
2024-01-28T10:03:11.354Z,125.10
2024-01-28T10:05:40.807Z,116.43
2024-01-28T10:08:08.307Z,126.53
2024-01-28T10:10:36.577Z,113.32
2024-01-28T10:13:04.741Z,116.47
2024-01-28T10:15:35.166Z,117.22
2024-01-28T10:18:02.637Z,106.45
2024-01-28T10:20:30.229Z,107.70
2024-01-28T10:22:57.205Z,106.07
2024-01-28T10:25:24.223Z,97.20
2024-01-28T10:27:52.059Z,105.78
2024-01-28T10:30:20.826Z,101.78
2024-01-28T10:32:48.276Z,100.57
2024-01-28T10:35:18.644Z,105.15
2024-01-28T10:37:54.429Z,94.80
2024-01-28T10:40:25.047Z,94.03
2024-01-28T10:42:59.363Z,95.20
2024-01-28T10:45:28.751Z,106.35
2024-01-28T10:47:57.005Z,107.70
2024-01-28T10:50:29.084Z,101.28
2024-01-28T10:52:58.270Z,101.28
2024-01-28T10:55:26.226Z,107.45
2024-01-28T10:57:54.887Z,117.28
2024-01-28T11:00:23.119Z,111.70
2024-01-28T11:02:51.256Z,115.72
2024-01-28T11:05:19.568Z,111.35
2024-01-28T11:07:49.089Z,108.50
2024-01-28T11:10:18.573Z,117.40
2024-01-28T11:12:45.737Z,115.85
2024-01-28T11:15:16.289Z,113.40
2024-01-28T11:17:43.915Z,133.63
2024-01-28T11:20:13.316Z,129.57
2024-01-28T11:22:49.418Z,137.55
2024-01-28T11:25:21.655Z,150.05
2024-01-28T11:27:53.750Z,153.00
2024-01-28T11:30:22.936Z,153.45
2024-01-28T11:32:51.420Z,154.90
2024-01-28T11:35:18.735Z,160.27
2024-01-28T11:37:58.889Z,157.75
2024-01-28T11:40:33.268Z,155.57
2024-01-28T11:43:00.903Z,157.27
2024-01-28T11:45:28.888Z,173.45
2024-01-28T11:47:55.932Z,169.85
2024-01-28T11:50:22.829Z,180.43
2024-01-28T11:52:50.722Z,190.90
2024-01-28T11:55:18.673Z,174.98
2024-01-28T11:57:48.291Z,172.70
2024-01-28T12:00:16.277Z,177.93
2024-01-28T12:02:44.243Z,191.23
2024-01-28T12:05:12.024Z,190.02
2024-01-28T12:07:40.216Z,186.00
2024-01-28T12:10:09.328Z,190.88
2024-01-28T12:12:36.443Z,180.35
2024-01-28T12:15:04.868Z,182.68
2024-01-28T12:17:43.730Z,187.75
2024-01-28T12:20:24.448Z,180.02
2024-01-28T12:22:52.051Z,193.40
2024-01-28T12:25:23.861Z,174.70
2024-01-28T12:27:52.807Z,181.30
2024-01-28T12:30:21.350Z,181.68
2024-01-28T12:32:50.839Z,181.85
2024-01-28T12:35:18.274Z,169.27
2024-01-28T12:37:47.990Z,186.57
2024-01-28T12:40:14.995Z,192.20
2024-01-28T12:42:42.521Z,175.45
2024-01-28T12:45:11.741Z,175.85
2024-01-28T12:47:39.202Z,179.75
2024-01-28T12:50:07.312Z,174.68
2024-01-28T12:52:36.539Z,162.00
2024-01-28T12:55:07.525Z,167.65
2024-01-28T12:57:36.909Z,153.63
2024-01-28T13:00:07.578Z,160.27
2024-01-28T13:02:35.352Z,163.13
2024-01-28T13:05:03.153Z,127.72
2024-01-28T13:07:30.250Z,141.88
2024-01-28T13:09:58.818Z,133.00
2024-01-28T13:12:28.288Z,127.28
2024-01-28T13:14:56.149Z,151.32
2024-01-28T13:17:24.338Z,144.05
2024-01-28T13:19:55.553Z,155.23
2024-01-28T13:22:22.638Z,161.05
2024-01-28T13:24:53.973Z,167.00
2024-01-28T13:27:22.256Z,168.65
2024-01-28T13:29:50.374Z,157.95
2024-01-28T13:32:19.352Z,160.88
2024-01-28T13:34:47.517Z,154.07
2024-01-28T13:37:14.763Z,143.32
2024-01-28T13:39:42.220Z,158.75
2024-01-28T13:42:09.712Z,144.93
2024-01-28T13:44:37.727Z,152.43
2024-01-28T13:47:05.354Z,142.52
2024-01-28T13:49:33.035Z,144.48
2024-01-28T13:52:00.157Z,134.45
2024-01-28T13:54:27.274Z,136.23
2024-01-28T13:56:58.434Z,134.63
2024-01-28T13:59:25.498Z,133.50
2024-01-28T14:01:52.576Z,134.48
2024-01-28T14:04:19.670Z,127.18
2024-01-28T14:06:46.828Z,130.85
2024-01-28T14:09:17.741Z,111.20
2024-01-28T14:11:45.965Z,121.55
2024-01-28T14:14:13.032Z,135.32
2024-01-28T14:16:43.314Z,119.60
2024-01-28T14:19:10.338Z,132.82
2024-01-28T14:21:37.451Z,122.53
2024-01-28T14:24:04.570Z,110.25
2024-01-28T14:26:31.656Z,114.20
2024-01-28T14:28:58.569Z,121.93
2024-01-28T14:31:25.786Z,109.85
2024-01-28T14:33:54.701Z,119.18
2024-01-28T14:36:22.106Z,118.28
2024-01-28T14:38:49.621Z,127.55
2024-01-28T14:41:17.449Z,113.60
2024-01-28T14:43:45.323Z,115.78
2024-01-28T14:46:12.891Z,128.30
2024-01-28T14:48:41.928Z,107.35
2024-01-28T14:51:09.143Z,110.50
2024-01-28T14:53:37.505Z,127.90
2024-01-28T14:56:05.197Z,120.40
2024-01-28T14:58:32.324Z,118.30
2024-01-28T15:00:59.617Z,117.32
2024-01-28T15:03:26.858Z,114.05
2024-01-28T15:05:54.342Z,114.03
2024-01-28T15:08:22.264Z,121.20
2024-01-28T15:10:50.693Z,114.97
2024-01-28T15:13:17.669Z,104.97
2024-01-28T15:15:44.767Z,121.00
2024-01-28T15:18:13.387Z,109.15
2024-01-28T15:20:40.633Z,116.85
2024-01-28T15:23:07.742Z,124.40
2024-01-28T15:25:34.741Z,104.40
2024-01-28T15:28:01.876Z,116.85
2024-01-28T15:30:28.930Z,106.97
2024-01-28T15:32:56.121Z,118.50
2024-01-28T15:35:23.805Z,118.25
2024-01-28T15:37:51.500Z,117.93
2024-01-28T15:40:18.945Z,123.13
2024-01-28T15:42:46.308Z,119.15
2024-01-28T15:45:14.332Z,130.07
2024-01-28T15:47:43.642Z,132.57
2024-01-28T15:50:10.999Z,135.88
2024-01-28T15:52:37.911Z,134.38
2024-01-28T15:55:05.204Z,137.85
2024-01-28T15:57:32.683Z,154.18
2024-01-28T16:00:06.822Z,154.23
2024-01-28T16:02:35.217Z,144.60
2024-01-28T16:05:02.549Z,158.80
2024-01-28T16:07:29.764Z,150.25
2024-01-28T16:09:57.772Z,144.20
2024-01-28T16:12:26.627Z,151.63
2024-01-28T16:14:53.583Z,148.63
2024-01-28T16:17:24.702Z,143.85
2024-01-28T16:19:52.234Z,161.57
2024-01-28T16:22:20.792Z,167.35
2024-01-28T16:24:49.337Z,159.00
2024-01-28T16:27:17.835Z,173.68
2024-01-28T16:29:46.607Z,175.98
2024-01-28T16:32:13.988Z,159.55
2024-01-28T16:34:41.278Z,160.57
2024-01-28T16:37:08.870Z,164.60
2024-01-28T16:39:36.506Z,157.25
2024-01-28T16:42:03.546Z,185.43
2024-01-28T16:44:30.541Z,163.75
2024-01-28T16:46:57.575Z,179.90
2024-01-28T16:49:26.043Z,169.77
2024-01-28T16:51:53.670Z,188.60
2024-01-28T16:54:20.683Z,170.57
2024-01-28T16:56:48.195Z,174.70
2024-01-28T16:59:15.597Z,168.80
2024-01-28T17:01:44.396Z,172.20
2024-01-28T17:04:11.642Z,164.25
2024-01-28T17:06:39.929Z,180.85
2024-01-28T17:09:07.053Z,165.25
2024-01-28T17:11:34.050Z,182.15
2024-01-28T17:14:03.978Z,190.13
2024-01-28T17:16:31.066Z,191.95
2024-01-28T17:18:58.206Z,186.85
2024-01-28T17:21:25.219Z,203.07
2024-01-28T17:23:52.409Z,194.25
2024-01-28T17:26:19.997Z,197.40
2024-01-28T17:28:47.006Z,184.38
2024-01-28T17:31:14.049Z,187.35
2024-01-28T17:33:41.328Z,181.43
2024-01-28T17:36:08.661Z,197.73
2024-01-28T17:38:35.743Z,200.13
2024-01-28T17:41:03.009Z,179.05
2024-01-28T17:43:30.001Z,185.52
2024-01-28T17:45:57.447Z,186.35
2024-01-28T17:48:25.563Z,204.82
2024-01-28T17:50:53.482Z,183.00
2024-01-28T17:53:20.423Z,217.02
2024-01-28T17:55:47.472Z,201.10
2024-01-28T17:58:14.508Z,233.77
2024-01-28T18:00:41.450Z,203.75
2024-01-28T18:03:08.633Z,194.77
2024-01-28T18:05:35.573Z,198.30
2024-01-28T18:08:02.687Z,194.82
2024-01-28T18:10:31.064Z,188.95
2024-01-28T18:12:59.172Z,198.98
2024-01-28T18:15:27.199Z,196.35
2024-01-28T18:17:54.964Z,182.60
2024-01-28T18:20:24.848Z,190.13
2024-01-28T18:22:51.750Z,184.52
2024-01-28T18:25:19.047Z,215.73
2024-01-28T18:27:47.558Z,203.25
2024-01-28T18:30:14.590Z,198.57
2024-01-28T18:32:41.812Z,208.40
2024-01-28T18:35:09.255Z,218.73
2024-01-28T18:37:37.753Z,215.35
2024-01-28T18:40:05.342Z,221.20
2024-01-28T18:42:32.579Z,230.43
2024-01-28T18:44:59.428Z,237.88
2024-01-28T18:47:26.824Z,222.65
2024-01-28T18:49:53.945Z,235.82
2024-01-28T18:52:21.097Z,223.77
2024-01-28T18:54:48.126Z,225.52
2024-01-28T18:57:15.279Z,235.43
2024-01-28T18:59:42.343Z,215.40
2024-01-28T19:02:09.621Z,219.07
2024-01-28T19:04:36.766Z,199.90
2024-01-28T19:07:03.906Z,205.00
2024-01-28T19:09:30.864Z,213.80
2024-01-28T19:11:58.793Z,222.25
2024-01-28T19:14:27.662Z,213.50
2024-01-28T19:16:54.787Z,195.50
2024-01-28T19:19:22.467Z,210.77
2024-01-28T19:21:49.472Z,210.40
2024-01-28T19:24:16.536Z,195.70
2024-01-28T19:26:43.790Z,220.65
2024-01-28T19:29:10.904Z,204.98
2024-01-28T19:31:38.048Z,221.50
2024-01-28T19:34:04.983Z,226.38
2024-01-28T19:36:36.851Z,230.05
2024-01-28T19:39:04.501Z,231.02
2024-01-28T19:41:31.631Z,249.60
2024-01-28T19:43:58.900Z,250.57
2024-01-28T19:46:27.440Z,244.57
2024-01-28T19:48:55.289Z,255.02
2024-01-28T19:51:26.470Z,247.98
2024-01-28T19:53:54.935Z,255.05
2024-01-28T19:56:21.888Z,260.80
2024-01-28T19:58:49.603Z,254.95
2024-01-28T20:01:16.766Z,258.92
2024-01-28T20:03:43.953Z,255.15
2024-01-28T20:06:19.070Z,250.70
2024-01-28T20:08:55.207Z,242.23
2024-01-28T20:11:22.092Z,250.38
2024-01-28T20:13:49.848Z,220.43
2024-01-28T20:16:17.168Z,262.15
2024-01-28T20:18:44.286Z,246.13
2024-01-28T20:21:11.209Z,240.18
2024-01-28T20:23:40.489Z,256.73
2024-01-28T20:26:07.525Z,256.50
2024-01-28T20:28:36.143Z,266.23
2024-01-28T20:31:03.272Z,267.65
2024-01-28T20:33:30.394Z,269.40
2024-01-28T20:35:57.642Z,236.85
2024-01-28T20:38:25.660Z,256.13
2024-01-28T20:40:52.869Z,259.10
2024-01-28T20:43:19.900Z,270.88
2024-01-28T20:45:47.210Z,246.95
2024-01-28T20:48:14.841Z,256.80
2024-01-28T20:50:41.946Z,260.63
2024-01-28T20:53:09.116Z,246.93
2024-01-28T20:55:35.968Z,253.55
2024-01-28T20:58:03.180Z,248.40
2024-01-28T21:00:30.221Z,270.30
2024-01-28T21:02:57.522Z,282.35
2024-01-28T21:05:24.741Z,256.30
2024-01-28T21:07:51.796Z,294.95
2024-01-28T21:10:18.915Z,271.65
2024-01-28T21:12:45.947Z,325.02
2024-01-28T21:15:13.006Z,339.73
2024-01-28T21:17:40.179Z,275.05
2024-01-28T21:20:07.710Z,265.00
2024-01-28T21:22:35.385Z,315.40
2024-01-28T21:25:02.477Z,339.83
2024-01-28T21:27:29.808Z,314.63
2024-01-28T21:29:57.900Z,280.45
2024-01-28T21:32:24.926Z,335.63
2024-01-28T21:34:52.005Z,300.65
2024-01-28T21:37:19.204Z,326.83
2024-01-28T21:39:46.383Z,303.00
2024-01-28T21:42:14.576Z,341.50
2024-01-28T21:44:41.648Z,300.73
2024-01-28T21:47:08.919Z,294.25
2024-01-28T21:49:40.156Z,301.27
2024-01-28T21:52:08.085Z,276.15
2024-01-28T21:54:35.130Z,274.65
2024-01-28T21:57:02.269Z,282.67
2024-01-28T21:59:29.184Z,270.92
2024-01-28T22:01:56.282Z,292.48
2024-01-28T22:04:24.193Z,307.63
2024-01-28T22:06:51.535Z,289.83
2024-01-28T22:09:18.565Z,274.05
2024-01-28T22:11:48.674Z,278.80
2024-01-28T22:14:16.376Z,254.65
2024-01-28T22:16:43.474Z,259.73
2024-01-28T22:19:10.984Z,285.65
2024-01-28T22:21:38.097Z,256.83
2024-01-28T22:24:05.480Z,296.20
2024-01-28T22:26:32.452Z,305.02
2024-01-28T22:28:59.583Z,278.95
2024-01-28T22:31:26.735Z,293.50
2024-01-28T22:33:53.824Z,283.33
2024-01-28T22:36:20.923Z,261.98
2024-01-28T22:38:47.822Z,278.90
2024-01-28T22:41:16.749Z,243.13
2024-01-28T22:43:44.734Z,323.52
2024-01-28T22:46:11.917Z,257.40
2024-01-28T22:48:39.381Z,264.40
2024-01-28T22:51:06.606Z,301.63
2024-01-28T22:53:33.747Z,275.45
2024-01-28T22:56:03.458Z,294.83
2024-01-28T22:58:30.400Z,250.70
2024-01-28T23:00:57.566Z,245.50
2024-01-28T23:03:24.617Z,237.80
2024-01-28T23:05:51.760Z,255.07
2024-01-28T23:08:18.681Z,229.07
2024-01-28T23:10:45.637Z,245.45
2024-01-28T23:13:12.644Z,217.13
2024-01-28T23:15:39.740Z,226.75
2024-01-28T23:18:06.851Z,213.27
2024-01-28T23:20:34.977Z,212.40
2024-01-28T23:23:02.219Z,222.38
2024-01-28T23:25:29.217Z,228.45
2024-01-28T23:27:56.643Z,216.07
2024-01-28T23:30:24.311Z,237.18
2024-01-28T23:32:51.368Z,207.60
2024-01-28T23:35:18.474Z,213.57
2024-01-28T23:37:45.331Z,223.32
2024-01-28T23:40:12.819Z,214.95
2024-01-28T23:42:40.078Z,240.95
2024-01-28T23:45:10.703Z,233.45
2024-01-28T23:47:37.790Z,228.23
2024-01-28T23:50:08.404Z,221.13
2024-01-28T23:52:35.743Z,253.95
2024-01-28T23:55:03.458Z,231.43
2024-01-28T23:57:30.804Z,266.60
2024-01-28T23:59:57.762Z,295.13
